Time;durP1;ratioP1;P1;durP2;ratioP2;P2;SDS_P1;SDS_P2;PMS_P1;PMS_P2;Temp;Humidity;BMP_temperature;BMP_pressure;BME280_temperature;BME280_humidity;BME280_pressure;Samples;Min_cycle;Max_cycle;Signal;HPM_P1;HPM_P2
2022/07/29 00:00:38;;;;;;;3.63;1.80;;;;;;;16.61;77.75;101465.19;5016476;28;20448;-72
2022/07/29 00:03:05;;;;;;;4.03;1.70;;;;;;;16.62;78.31;101468.72;5015962;28;20527;-72
2022/07/29 00:05:32;;;;;;;6.77;1.87;;;;;;;16.62;78.32;101477.72;5015538;28;21005;-73
2022/07/29 00:07:58;;;;;;;5.03;1.50;;;;;;;16.61;78.26;101475.31;5015770;28;20570;-72
2022/07/29 00:10:25;;;;;;;5.37;1.87;;;;;;;16.58;78.36;101468.53;5015469;28;20451;-72
2022/07/29 00:12:51;;;;;;;5.10;1.80;;;;;;;16.57;78.39;101475.16;5015801;28;20472;-71
2022/07/29 00:15:18;;;;;;;3.27;1.70;;;;;;;16.55;79.20;101482.84;5015692;28;20450;-72
2022/07/29 00:17:46;;;;;;;5.40;2.17;;;;;;;16.57;78.91;101483.34;5015619;28;20535;-72
2022/07/29 00:20:12;;;;;;;5.13;2.20;;;;;;;16.58;78.57;101473.22;5015605;28;20530;-72
2022/07/29 00:22:40;;;;;;;2.97;1.50;;;;;;;16.54;78.84;101469.50;5015577;28;20440;-72
2022/07/29 00:25:07;;;;;;;5.50;1.47;;;;;;;16.52;79.21;101467.09;5015469;28;20475;-72
2022/07/29 00:27:34;;;;;;;4.47;1.90;;;;;;;16.46;79.43;101457.41;5015257;28;20491;-72
2022/07/29 00:30:01;;;;;;;5.53;1.70;;;;;;;16.43;79.04;101451.81;5015130;28;20980;-72
2022/07/29 00:32:27;;;;;;;4.03;1.90;;;;;;;16.39;79.35;101460.63;5015048;28;20530;-72
2022/07/29 00:37:39;;;;;;;3.40;1.83;;;;;;;16.30;79.86;101454.34;5015402;28;20510;-72
2022/07/29 00:40:08;;;;;;;4.10;1.60;;;;;;;16.21;79.42;101459.00;5014977;28;21029;-72
2022/07/29 00:42:42;;;;;;;3.17;1.90;;;;;;;16.18;78.04;101450.63;5015179;28;20440;-72
2022/07/29 00:45:10;;;;;;;3.83;1.87;;;;;;;16.16;77.70;101450.94;5015191;28;20435;-72
2022/07/29 00:47:36;;;;;;;5.57;1.83;;;;;;;16.09;76.54;101450.59;5014927;28;20575;-72
2022/07/29 00:50:06;;;;;;;3.90;2.17;;;;;;;16.01;77.72;101451.34;5014723;28;20527;-72
2022/07/29 00:52:34;;;;;;;3.93;1.80;;;;;;;15.95;79.39;101455.38;5014709;28;20526;-75
2022/07/29 00:55:00;;;;;;;5.60;2.87;;;;;;;15.96;80.61;101446.84;5015012;28;20444;-75
2022/07/29 00:57:27;;;;;;;6.77;2.50;;;;;;;15.94;81.32;101448.28;5014744;28;20519;-75
2022/07/29 00:59:53;;;;;;;4.70;2.77;;;;;;;15.91;81.75;101443.47;5014947;28;20535;-75
2022/07/29 01:02:20;;;;;;;3.27;1.87;;;;;;;15.92;81.95;101450.53;5014620;28;20448;-75
2022/07/29 01:04:47;;;;;;;5.80;1.33;;;;;;;15.92;82.25;101445.06;5014572;28;20530;-75
2022/07/29 01:07:15;;;;;;;4.10;1.80;;;;;;;15.91;82.26;101443.47;5014685;28;20526;-75
2022/07/29 01:09:44;;;;;;;3.60;1.33;;;;;;;15.89;82.45;101447.31;5014728;28;20436;-75
2022/07/29 01:12:12;;;;;;;3.70;1.60;;;;;;;15.86;82.43;101442.47;5014662;28;20487;-75
2022/07/29 01:14:40;;;;;;;3.50;1.57;;;;;;;15.86;82.17;101445.22;5014662;28;20452;-75
2022/07/29 01:17:11;;;;;;;6.40;1.97;;;;;;;15.84;82.72;101444.69;5014503;28;20538;-75
2022/07/29 01:19:53;;;;;;;2.97;1.50;;;;;;;15.85;83.08;101434.59;5014609;28;20520;-74
2022/07/29 01:22:30;;;;;;;4.10;1.50;;;;;;;15.80;82.95;101427.31;5014268;28;20432;-74
2022/07/29 01:25:10;;;;;;;5.10;2.50;;;;;;;15.76;83.34;101423.63;5014458;28;20428;-74
2022/07/29 01:27:52;;;;;;;4.33;1.97;;;;;;;15.73;83.77;101421.53;5014293;28;20484;-74
2022/07/29 01:30:25;;;;;;;4.93;1.93;;;;;;;15.74;83.30;101417.66;5014331;28;20424;-73
2022/07/29 01:32:57;;;;;;;3.50;1.87;;;;;;;15.71;83.86;101410.09;5014649;28;20432;-75
2022/07/29 01:35:27;;;;;;;4.27;1.77;;;;;;;15.68;84.23;101408.00;5014215;28;20436;-74
2022/07/29 01:37:59;;;;;;;3.63;1.77;;;;;;;15.69;84.01;101390.50;5013969;28;20874;-75
2022/07/29 01:40:34;;;;;;;5.30;1.90;;;;;;;15.68;83.98;101391.63;5014226;28;20519;-75
2022/07/29 01:43:08;;;;;;;4.30;2.03;;;;;;;15.67;84.19;101375.53;5013937;28;20902;-75
2022/07/29 01:45:41;;;;;;;6.87;2.17;;;;;;;15.61;84.66;101370.19;5013945;28;20439;-75
2022/07/29 01:48:23;;;;;;;3.30;1.53;;;;;;;15.63;84.52;101365.22;5013752;28;20559;-74
2022/07/29 01:50:54;;;;;;;3.50;1.50;;;;;;;15.60;84.78;101362.31;5014039;28;20515;-74
2022/07/29 01:53:30;;;;;;;3.33;1.83;;;;;;;15.63;84.92;101361.69;5013677;28;20993;-74
2022/07/29 01:56:00;;;;;;;3.70;1.80;;;;;;;15.65;84.60;101364.94;5013681;28;20475;-74
2022/07/29 01:58:29;;;;;;;3.67;1.63;;;;;;;15.65;85.13;101359.47;5013298;28;20463;-74
2022/07/29 02:00:59;;;;;;;4.00;1.63;;;;;;;15.60;85.04;101359.59;5013520;28;20539;-73
2022/07/29 02:03:27;;;;;;;5.83;2.00;;;;;;;15.57;84.95;101358.28;5013749;28;20432;-73
2022/07/29 02:05:57;;;;;;;3.83;2.13;;;;;;;15.59;84.79;101355.25;5013698;28;20526;-73
2022/07/29 02:08:26;;;;;;;3.57;1.93;;;;;;;15.55;85.22;101357.00;5013632;28;20583;-73
2022/07/29 02:10:55;;;;;;;3.43;1.80;;;;;;;15.50;85.70;101360.69;5013357;28;20535;-74
2022/07/29 02:13:25;;;;;;;3.87;1.90;;;;;;;15.54;85.64;101363.59;5013334;28;20448;-74
2022/07/29 02:15:54;;;;;;;4.60;1.70;;;;;;;15.53;85.75;101357.31;5013274;28;20543;-74
2022/07/29 02:18:24;;;;;;;5.17;2.10;;;;;;;15.50;85.52;101357.16;5013540;28;20527;-74
2022/07/29 02:20:54;;;;;;;3.83;2.00;;;;;;;15.49;83.19;101367.25;5013591;28;20523;-73
2022/07/29 02:23:24;;;;;;;4.43;1.77;;;;;;;15.44;82.88;101358.38;5013561;28;20544;-74
2022/07/29 02:25:54;;;;;;;4.30;1.20;;;;;;;15.37;81.34;101364.31;5013433;28;20547;-74
2022/07/29 02:28:22;;;;;;;3.60;2.03;;;;;;;15.32;81.17;101362.53;5013434;28;20468;-74
2022/07/29 02:30:51;;;;;;;4.97;1.87;;;;;;;15.28;82.80;101372.47;5013219;28;20534;-74
2022/07/29 02:33:19;;;;;;;3.03;1.77;;;;;;;15.28;84.53;101364.28;5013183;28;20527;-74
2022/07/29 02:35:49;;;;;;;9.57;2.20;;;;;;;15.30;85.65;101363.94;5013359;28;20900;-74
2022/07/29 02:41:08;;;;;;;5.67;1.90;;;;;;;15.32;85.97;101359.81;4995781;28;20444;-74
2022/07/29 02:43:36;;;;;;;4.50;2.07;;;;;;;15.32;82.93;101365.25;5013398;28;20523;-74
2022/07/29 02:46:06;;;;;;;3.63;1.60;;;;;;;15.31;81.33;101369.09;5013283;28;20550;-74
2022/07/29 02:48:37;;;;;;;4.70;1.97;;;;;;;15.33;81.70;101366.06;5013217;28;20492;-74
2022/07/29 02:51:13;;;;;;;4.47;1.37;;;;;;;15.33;83.66;101366.06;5013348;28;20443;-73
2022/07/29 02:53:42;;;;;;;3.30;1.70;;;;;;;15.36;85.29;101365.41;5013334;28;20511;-74
2022/07/29 02:56:14;;;;;;;5.17;1.70;;;;;;;15.39;85.48;101354.69;5012990;28;20515;-73
2022/07/29 02:58:45;;;;;;;3.20;1.50;;;;;;;15.44;86.54;101356.47;5013306;28;20424;-74
2022/07/29 03:01:15;;;;;;;4.43;2.17;;;;;;;15.49;85.56;101360.97;5013289;28;20436;-73
2022/07/29 03:03:45;;;;;;;3.57;1.60;;;;;;;15.49;85.97;101366.44;5012837;28;20531;-74
2022/07/29 03:06:15;;;;;;;4.10;2.23;;;;;;;15.50;86.47;101362.63;5012834;28;20546;-74
2022/07/29 03:08:43;;;;;;;4.30;1.43;;;;;;;15.51;86.11;101353.28;5012994;28;21009;-74
2022/07/29 03:11:10;;;;;;;3.13;1.53;;;;;;;15.53;86.18;101354.56;5012936;28;20530;-74
2022/07/29 03:13:38;;;;;;;2.90;1.30;;;;;;;15.56;86.16;101361.34;5013123;28;20444;-74
2022/07/29 03:16:05;;;;;;;13.73;1.97;;;;;;;15.57;86.16;101363.75;5012957;28;20552;-75
2022/07/29 03:18:33;;;;;;;3.43;1.63;;;;;;;15.61;85.77;101353.81;5013019;28;20486;-74
2022/07/29 03:21:00;;;;;;;2.90;1.57;;;;;;;15.62;85.89;101343.69;5012691;28;20942;-74
2022/07/29 03:23:28;;;;;;;4.77;1.60;;;;;;;15.63;85.51;101357.03;5012985;28;20452;-74
2022/07/29 03:25:55;;;;;;;4.67;2.07;;;;;;;15.65;85.93;101345.81;5013730;28;21004;-75
2022/07/29 03:28:23;;;;;;;3.23;1.67;;;;;;;15.59;85.89;101347.88;5016526;28;20511;-73
2022/07/29 03:30:50;;;;;;;3.27;1.27;;;;;;;15.64;85.81;101344.22;5016569;28;20440;-74
2022/07/29 03:33:16;;;;;;;3.40;1.63;;;;;;;15.64;85.87;101341.47;5016529;28;20452;-74
2022/07/29 03:35:43;;;;;;;3.07;1.67;;;;;;;15.61;85.79;101337.41;5016413;28;20470;-74
2022/07/29 03:38:09;;;;;;;3.50;1.40;;;;;;;15.61;85.70;101342.06;5016160;28;20444;-74
2022/07/29 03:40:41;;;;;;;4.30;1.90;;;;;;;15.59;86.56;101342.41;5016428;28;20539;-73
2022/07/29 03:43:10;;;;;;;7.77;1.87;;;;;;;15.55;86.70;101335.16;5016191;28;20511;-74
2022/07/29 03:45:39;;;;;;;4.10;1.73;;;;;;;15.58;86.41;101334.50;5015946;28;20534;-74
2022/07/29 03:48:10;;;;;;;4.93;1.60;;;;;;;15.53;86.30;101335.47;5016159;28;20566;-74
2022/07/29 03:50:37;;;;;;;3.33;1.67;;;;;;;15.53;86.78;101335.47;5016257;28;20524;-73
2022/07/29 03:53:04;;;;;;;3.50;1.83;;;;;;;15.53;86.90;101335.47;5016193;28;20428;-74
2022/07/29 03:55:37;;;;;;;6.60;1.87;;;;;;;15.54;87.01;101334.34;5015944;28;20448;-74
2022/07/29 03:58:06;;;;;;;5.40;2.10;;;;;;;15.51;87.50;101337.72;5017102;28;20922;-74
2022/07/29 04:00:34;;;;;;;4.10;1.53;;;;;;;15.55;87.26;101321.50;5016067;28;20452;-74
2022/07/29 04:03:01;;;;;;;3.13;1.73;;;;;;;15.55;86.95;101333.22;5016016;28;20574;-72
2022/07/29 04:05:28;;;;;;;5.13;1.97;;;;;;;15.50;86.15;101330.66;5015862;28;20445;-73
2022/07/29 04:07:54;;;;;;;3.20;1.80;;;;;;;15.49;83.62;101334.47;5015528;28;20543;-73
2022/07/29 04:10:21;;;;;;;4.13;1.53;;;;;;;15.48;82.48;101340.25;5015807;28;20444;-72
2022/07/29 04:12:47;;;;;;;3.03;1.23;;;;;;;15.50;83.65;101344.28;5015849;28;20542;-73
2022/07/29 04:15:15;;;;;;;3.00;1.67;;;;;;;15.51;84.84;101339.63;5015750;28;20447;-73
2022/07/29 04:17:42;;;;;;;5.80;1.60;;;;;;;15.54;86.10;101341.75;5015368;28;20464;-73
2022/07/29 04:20:12;;;;;;;4.20;2.03;;;;;;;15.54;86.64;101337.09;5015697;28;20455;-73
2022/07/29 04:22:39;;;;;;;3.50;1.50;;;;;;;15.60;86.67;101338.53;5015632;28;20454;-73
2022/07/29 04:25:06;;;;;;;2.50;1.10;;;;;;;15.62;86.93;101349.94;5015712;28;20531;-73
2022/07/29 04:27:32;;;;;;;4.17;1.70;;;;;;;15.67;87.05;101350.94;5015125;28;20464;-73
2022/07/29 04:29:59;;;;;;;3.90;1.67;;;;;;;15.72;87.18;101351.63;5015283;28;20571;-73
2022/07/29 04:32:27;;;;;;;2.77;1.33;;;;;;;15.76;86.60;101343.59;5015296;28;20446;-73
2022/07/29 04:34:54;;;;;;;2.73;1.23;;;;;;;15.84;86.99;101342.81;5015055;28;20444;-73
2022/07/29 04:37:20;;;;;;;3.60;1.60;;;;;;;15.91;86.40;101350.56;5014702;28;20460;-73
2022/07/29 04:39:47;;;;;;;7.70;2.00;;;;;;;15.97;86.36;101344.59;5015285;28;20527;-72
2022/07/29 04:42:13;;;;;;;4.07;1.50;;;;;;;16.05;85.90;101346.56;5014937;28;20937;-72
2022/07/29 04:44:40;;;;;;;7.50;1.70;;;;;;;16.15;85.65;101345.44;5015218;28;20472;-72
2022/07/29 04:47:09;;;;;;;4.40;1.87;;;;;;;16.24;84.82;101348.97;5015377;28;20464;-72
2022/07/29 04:49:39;;;;;;;4.23;1.70;;;;;;;16.34;84.85;101345.16;5015029;28;20494;-72
2022/07/29 04:52:06;;;;;;;4.40;1.50;;;;;;;16.42;83.51;101343.53;5015367;28;20428;-72
2022/07/29 04:54:33;;;;;;;4.57;1.70;;;;;;;16.54;83.23;101347.22;5015007;28;20450;-72
2022/07/29 04:57:00;;;;;;;4.20;1.37;;;;;;;16.61;83.22;101355.75;5014712;28;20476;-72
2022/07/29 04:59:26;;;;;;;4.53;1.80;;;;;;;16.72;83.04;101352.69;5014866;28;20476;-72
2022/07/29 05:01:53;;;;;;;4.30;2.03;;;;;;;16.83;82.47;101351.28;5014853;28;20451;-72
2022/07/29 05:04:19;;;;;;;5.93;2.33;;;;;;;16.90;81.89;101354.31;5014793;28;20440;-73
2022/07/29 05:06:48;;;;;;;3.63;1.60;;;;;;;16.98;81.64;101348.00;5014424;28;21048;-73
2022/07/29 05:09:14;;;;;;;3.47;1.40;;;;;;;17.06;81.27;101347.19;5014624;28;20487;-73
2022/07/29 05:11:41;;;;;;;2.97;1.50;;;;;;;17.16;80.86;101346.03;5014432;28;20953;-73
2022/07/29 05:14:07;;;;;;;3.77;1.80;;;;;;;17.24;80.63;101347.94;5014683;28;20539;-73
2022/07/29 05:16:34;;;;;;;2.80;1.30;;;;;;;17.31;80.52;101342.78;5014776;28;20554;-73
2022/07/29 05:19:01;;;;;;;2.70;1.17;;;;;;;17.38;79.71;101340.31;5014577;28;20444;-75
2022/07/29 05:21:27;;;;;;;5.10;1.60;;;;;;;17.44;79.49;101340.13;5014599;28;20447;-76
2022/07/29 05:23:55;;;;;;;2.87;1.10;;;;;;;17.36;78.92;101339.84;5014560;28;20452;-75
2022/07/29 05:26:22;;;;;;;3.77;2.10;;;;;;;17.42;78.30;101337.72;5014071;28;20995;-72
2022/07/29 05:28:49;;;;;;;3.60;1.40;;;;;;;17.31;75.54;101331.81;5014372;28;20491;-72
2022/07/29 05:31:15;;;;;;;5.60;1.70;;;;;;;17.32;76.10;101338.09;5014353;28;20877;-72
2022/07/29 05:33:42;;;;;;;2.90;1.23;;;;;;;17.32;75.44;101333.41;5014327;28;20472;-72
2022/07/29 05:36:09;;;;;;;3.33;1.60;;;;;;;17.34;76.09;101336.63;5013877;28;20559;-72
2022/07/29 05:38:36;;;;;;;3.47;1.53;;;;;;;17.36;77.25;101341.78;5014174;28;20451;-71
2022/07/29 05:41:04;;;;;;;3.10;1.47;;;;;;;17.42;77.29;101340.47;5013933;28;20451;-71
2022/07/29 05:43:31;;;;;;;3.87;1.57;;;;;;;17.46;77.07;101340.63;5013812;28;20449;-72
2022/07/29 05:45:58;;;;;;;3.13;1.40;;;;;;;17.49;77.40;101343.50;5014049;28;20468;-72
2022/07/29 05:48:25;;;;;;;5.47;2.10;;;;;;;17.50;77.01;101344.31;5013796;28;20480;-72
2022/07/29 05:50:51;;;;;;;4.30;1.60;;;;;;;17.55;76.82;101344.13;5013292;28;20448;-72
2022/07/29 05:53:18;;;;;;;3.30;1.30;;;;;;;17.64;76.40;101347.63;5013962;28;20448;-72
2022/07/29 05:55:45;;;;;;;5.13;1.40;;;;;;;17.72;76.66;101343.22;5013670;28;20464;-72
2022/07/29 05:58:13;;;;;;;3.70;1.53;;;;;;;17.82;76.14;101338.19;5013967;28;20436;-72
2022/07/29 06:00:39;;;;;;;3.57;1.70;;;;;;;17.94;75.25;101342.97;5013883;28;20467;-72
2022/07/29 06:03:06;;;;;;;3.77;1.63;;;;;;;18.04;73.96;101347.25;5013546;28;20540;-72
2022/07/29 06:05:32;;;;;;;3.63;1.37;;;;;;;18.14;74.51;101349.59;5013731;28;20519;-72
2022/07/29 06:07:59;;;;;;;2.60;1.20;;;;;;;18.19;74.46;101354.09;5013794;28;20539;-75
2022/07/29 06:10:26;;;;;;;3.83;1.93;;;;;;;18.25;74.77;101353.56;5013571;28;20519;-74
2022/07/29 06:12:53;;;;;;;4.00;1.97;;;;;;;18.31;74.47;101346.72;5013624;28;20444;-74
2022/07/29 06:15:21;;;;;;;2.63;0.97;;;;;;;18.31;73.85;101348.66;5013577;28;20889;-74
2022/07/29 06:17:47;;;;;;;3.80;1.47;;;;;;;18.37;74.11;101341.84;5013604;28;20531;-74
2022/07/29 06:20:14;;;;;;;3.00;1.40;;;;;;;18.36;73.68;101335.56;5013606;28;20447;-75
2022/07/29 06:22:41;;;;;;;5.13;1.80;;;;;;;18.36;72.77;101337.50;5013599;28;20519;-74
2022/07/29 06:25:08;;;;;;;5.50;1.93;;;;;;;18.36;72.82;101338.28;5013441;28;20527;-74
2022/07/29 06:27:34;;;;;;;6.37;2.00;;;;;;;18.43;72.66;101343.25;5013347;28;20472;-73
2022/07/29 06:30:01;;;;;;;14.03;1.50;;;;;;;18.49;72.09;101343.84;5013736;28;20487;-73
2022/07/29 06:32:30;;;;;;;2.80;1.30;;;;;;;18.56;71.87;101335.88;5013522;28;20441;-73
2022/07/29 06:34:57;;;;;;;3.60;1.50;;;;;;;18.62;71.18;101340.03;5013450;28;20820;-73
2022/07/29 06:37:24;;;;;;;3.30;1.60;;;;;;;18.65;71.14;101344.84;5013356;28;20466;-73
2022/07/29 06:40:59;;;;;;;2.50;1.07;;;;;;;18.73;71.80;101341.25;5013486;28;20526;-74
2022/07/29 06:42:38;;;;;;;4.13;1.50;;;;;;;18.78;72.35;101345.72;5013048;28;20502;-73
2022/07/29 06:45:05;;;;;;;3.50;1.50;;;;;;;18.80;72.39;101340.69;5013351;28;20534;-73
2022/07/29 06:47:33;;;;;;;3.33;1.83;;;;;;;18.84;72.27;101350.66;5012937;28;20468;-73
2022/07/29 06:50:00;;;;;;;3.10;1.00;;;;;;;18.87;72.69;101346.44;5012954;28;21016;-74
2022/07/29 06:52:27;;;;;;;3.07;1.40;;;;;;;18.93;72.92;101349.75;5013013;28;20942;-74
2022/07/29 06:54:54;;;;;;;3.83;1.37;;;;;;;19.00;73.32;101353.56;5013469;28;20538;-74
2022/07/29 06:57:21;;;;;;;4.70;1.93;;;;;;;19.05;73.25;101358.84;5012988;28;20490;-74
2022/07/29 06:59:48;;;;;;;4.17;1.70;;;;;;;19.07;71.38;101358.50;5013191;28;20444;-73
2022/07/29 07:02:15;;;;;;;2.73;1.40;;;;;;;19.03;70.14;101354.81;5016628;28;20535;-73
2022/07/29 07:04:43;;;;;;;3.20;1.30;;;;;;;18.92;70.36;101359.16;5017121;28;20439;-73
2022/07/29 07:07:09;;;;;;;4.90;1.33;;;;;;;18.83;71.76;101360.03;5016933;28;21036;-74
2022/07/29 07:09:36;;;;;;;4.90;2.20;;;;;;;18.81;73.64;101359.56;5016893;28;20570;-74
2022/07/29 07:12:03;;;;;;;3.83;1.70;;;;;;;18.85;74.16;101357.75;5016664;28;20451;-73
2022/07/29 07:14:29;;;;;;;4.07;2.10;;;;;;;18.87;74.72;101362.91;5016572;28;21025;-74
2022/07/29 07:16:56;;;;;;;3.10;1.60;;;;;;;18.91;74.56;101363.84;5016844;28;20502;-74
2022/07/29 07:19:23;;;;;;;3.53;1.47;;;;;;;18.97;74.53;101356.97;5016708;28;20535;-73
2022/07/29 07:21:51;;;;;;;6.90;1.80;;;;;;;19.04;73.63;101357.25;5016221;28;20880;-73
2022/07/29 07:24:17;;;;;;;8.53;1.80;;;;;;;19.12;73.14;101358.28;5016680;28;20475;-74
2022/07/29 07:26:44;;;;;;;5.80;1.77;;;;;;;19.17;73.89;101355.34;5016615;28;20464;-73
2022/07/29 07:29:11;;;;;;;3.97;1.50;;;;;;;19.26;73.86;101352.50;5016669;28;20570;-73
2022/07/29 07:31:38;;;;;;;3.40;1.37;;;;;;;19.31;72.63;101355.81;5016512;28;20443;-73
2022/07/29 07:34:04;;;;;;;5.53;1.70;;;;;;;19.40;73.11;101348.25;5016168;28;20521;-73
2022/07/29 07:36:31;;;;;;;4.70;1.43;;;;;;;19.50;73.06;101351.69;5016079;28;20468;-72
2022/07/29 07:38:59;;;;;;;5.93;1.40;;;;;;;19.55;73.10;101354.22;5016747;28;20440;-72
2022/07/29 07:41:26;;;;;;;5.13;1.83;;;;;;;19.56;74.22;101348.38;5016456;28;20452;-75
2022/07/29 07:43:52;;;;;;;4.20;1.20;;;;;;;19.59;72.33;101344.94;5016639;28;20463;-72
2022/07/29 07:46:19;;;;;;;5.43;2.10;;;;;;;19.65;71.48;101342.78;5015972;28;21052;-72
2022/07/29 07:48:45;;;;;;;3.73;1.40;;;;;;;19.71;72.27;101352.44;5016308;28;20450;-72
2022/07/29 07:51:12;;;;;;;2.70;1.03;;;;;;;19.77;72.12;101344.75;5016150;28;20489;-72
2022/07/29 07:53:39;;;;;;;2.67;1.23;;;;;;;19.80;70.85;101344.84;5015870;28;20444;-72
2022/07/29 07:56:07;;;;;;;3.13;1.50;;;;;;;19.88;69.00;101346.69;5015951;28;20575;-72
2022/07/29 07:58:35;;;;;;;3.10;1.40;;;;;;;19.93;69.23;101345.66;5016124;28;20546;-72
2022/07/29 08:01:01;;;;;;;7.80;1.60;;;;;;;19.98;68.54;101339.13;5016105;28;20444;-72
2022/07/29 08:03:28;;;;;;;3.87;1.80;;;;;;;20.03;70.23;101338.88;5016005;28;20443;-72
2022/07/29 08:05:55;;;;;;;3.20;1.40;;;;;;;20.09;68.38;101334.72;5015678;28;20535;-71
2022/07/29 08:08:21;;;;;;;8.10;1.40;;;;;;;20.17;69.66;101334.59;5015610;28;20957;-73
2022/07/29 08:10:55;;;;;;;2.50;1.00;;;;;;;20.20;69.78;101341.34;5015525;28;20578;-74
2022/07/29 08:13:26;;;;;;;2.50;1.10;;;;;;;20.28;70.02;101334.91;5015221;28;20463;-72
2022/07/29 08:15:58;;;;;;;3.10;1.27;;;;;;;20.40;69.51;101336.81;5015866;28;20510;-72
2022/07/29 08:18:25;;;;;;;4.47;1.07;;;;;;;20.49;68.78;101332.00;5015523;28;20427;-72
2022/07/29 08:20:52;;;;;;;3.30;1.20;;;;;;;20.59;67.03;101326.00;5015360;28;20950;-72
2022/07/29 08:23:19;;;;;;;3.13;1.40;;;;;;;20.72;65.57;101335.00;5015364;28;20454;-72
2022/07/29 08:25:46;;;;;;;2.63;1.20;;;;;;;20.87;65.81;101325.97;5015456;28;20881;-72
2022/07/29 08:28:12;;;;;;;2.60;1.03;;;;;;;21.02;64.32;101326.34;5015558;28;20945;-72
2022/07/29 08:30:40;;;;;;;3.20;1.23;;;;;;;21.17;64.43;101320.06;5015507;28;20574;-72
2022/07/29 08:33:07;;;;;;;3.57;1.07;;;;;;;21.30;63.51;101318.00;5015183;28;20450;-72
2022/07/29 08:35:33;;;;;;;3.00;0.80;;;;;;;21.45;60.80;101321.94;5015334;28;20486;-72
2022/07/29 08:38:00;;;;;;;3.67;1.20;;;;;;;21.62;61.20;101314.09;5015443;28;20482;-72
2022/07/29 08:40:27;;;;;;;2.70;1.10;;;;;;;21.75;62.05;101309.28;5014999;28;21032;-72
2022/07/29 08:42:53;;;;;;;4.40;1.57;;;;;;;21.92;62.22;101305.31;5015340;28;20535;-72
2022/07/29 08:45:22;;;;;;;2.50;1.00;;;;;;;22.07;62.34;101309.19;5015104;28;20527;-72
2022/07/29 08:47:51;;;;;;;12.70;1.17;;;;;;;22.21;60.00;101306.75;5015194;28;20444;-73
2022/07/29 08:50:17;;;;;;;2.40;1.03;;;;;;;22.37;57.04;101313.00;5015029;28;20479;-73
2022/07/29 08:52:44;;;;;;;2.60;1.07;;;;;;;22.54;54.84;101305.44;5015091;28;20479;-72
2022/07/29 08:55:11;;;;;;;2.50;1.10;;;;;;;22.73;55.20;101319.22;5014719;28;21056;-72
2022/07/29 08:57:40;;;;;;;3.00;0.97;;;;;;;22.91;54.84;101317.59;5014754;28;21001;-72
2022/07/29 09:00:08;;;;;;;2.07;0.77;;;;;;;23.11;53.15;101323.09;5014901;28;20523;-73
2022/07/29 09:02:39;;;;;;;2.10;0.77;;;;;;;23.26;52.80;101316.63;5014874;28;20443;-73
2022/07/29 09:05:09;;;;;;;2.47;0.80;;;;;;;23.45;52.55;101320.47;5014634;28;20906;-74
2022/07/29 09:07:37;;;;;;;4.33;0.70;;;;;;;23.63;50.29;101316.81;5014732;28;20470;-73
2022/07/29 09:10:06;;;;;;;3.43;1.10;;;;;;;23.68;48.05;101315.72;5014690;28;20558;-73
2022/07/29 09:12:32;;;;;;;2.30;0.80;;;;;;;23.75;49.41;101313.06;5014694;28;20515;-73
2022/07/29 09:14:59;;;;;;;2.20;0.80;;;;;;;23.80;48.39;101314.72;5014720;28;20539;-74
2022/07/29 09:17:42;;;;;;;4.20;1.20;;;;;;;23.97;46.83;101314.19;5014262;28;21057;-73
2022/07/29 09:20:12;;;;;;;2.93;0.90;;;;;;;24.03;47.68;101306.34;5014563;28;20443;-73
2022/07/29 09:22:38;;;;;;;2.50;1.13;;;;;;;24.10;48.65;101309.19;5014816;28;20535;-73
2022/07/29 09:25:05;;;;;;;2.10;0.67;;;;;;;24.11;48.16;101313.56;5014055;28;20530;-73
2022/07/29 09:27:33;;;;;;;5.20;1.10;;;;;;;24.20;45.04;101314.06;5014348;28;20228;-73
2022/07/29 09:30:00;;;;;;;4.20;0.87;;;;;;;24.29;46.65;101309.03;5014065;28;21084;-74
2022/07/29 09:32:28;;;;;;;2.70;1.00;;;;;;;24.41;46.35;101305.25;5014036;28;20972;-74
2022/07/29 09:35:17;;;;;;;2.43;1.10;;;;;;;24.56;46.07;101306.22;5014322;28;20450;-75
2022/07/29 09:37:44;;;;;;;2.87;1.33;;;;;;;24.64;44.25;101296.81;5014279;28;20546;-75
2022/07/29 09:40:17;;;;;;;2.40;1.00;;;;;;;24.69;44.14;101306.75;5014064;28;20444;-74
2022/07/29 09:42:44;;;;;;;2.00;0.77;;;;;;;24.69;45.63;101302.00;5011757;28;20442;-74
2022/07/29 09:45:12;;;;;;;3.07;1.13;;;;;;;24.72;44.45;101297.69;5012500;28;20550;-73
2022/07/29 09:47:44;;;;;;;3.27;1.17;;;;;;;24.70;43.60;101289.72;5013151;28;20989;-77
2022/07/29 09:50:11;;;;;;;2.00;0.70;;;;;;;24.87;44.61;101297.44;5014099;28;20484;-72
2022/07/29 09:52:46;;;;;;;2.87;0.97;;;;;;;25.02;43.53;101289.25;5013669;28;20972;-72
2022/07/29 09:55:13;;;;;;;3.13;1.03;;;;;;;25.24;44.54;101293.06;5013868;28;20837;-73
2022/07/29 09:57:40;;;;;;;2.47;1.17;;;;;;;25.38;42.55;101284.81;5013545;28;20857;-72
2022/07/29 10:00:09;;;;;;;2.30;0.87;;;;;;;25.52;40.42;101282.16;5013839;28;20527;-73
2022/07/29 10:02:37;;;;;;;4.00;1.13;;;;;;;25.73;42.80;101289.03;5013871;28;20436;-72
2022/07/29 10:05:06;;;;;;;2.70;1.03;;;;;;;25.75;40.61;101290.22;5014076;28;20455;-72
2022/07/29 10:07:47;;;;;;;2.97;0.70;;;;;;;25.74;39.03;101296.16;5013773;28;20546;-71
2022/07/29 10:10:21;;;;;;;2.40;0.83;;;;;;;25.85;40.82;101292.31;5013817;28;20554;-71
2022/07/29 10:12:50;;;;;;;1.97;0.60;;;;;;;25.95;40.56;101293.53;5013872;28;20500;-72
2022/07/29 10:15:17;;;;;;;3.27;0.90;;;;;;;26.08;40.75;101294.00;5013761;28;20530;-71
2022/07/29 10:17:44;;;;;;;1.93;0.60;;;;;;;26.27;39.93;101287.31;5013339;28;20925;-71
2022/07/29 10:20:11;;;;;;;5.80;0.97;;;;;;;26.46;39.54;101277.88;5013648;28;20442;-71
2022/07/29 10:22:38;;;;;;;2.63;0.90;;;;;;;26.63;39.18;101291.81;5013617;28;20946;-71
2022/07/29 10:25:06;;;;;;;2.67;1.00;;;;;;;26.68;37.96;101290.63;5013678;28;20805;-71
2022/07/29 10:27:33;;;;;;;2.47;1.00;;;;;;;26.44;38.46;101294.94;5013528;28;20842;-71
2022/07/29 10:30:01;;;;;;;2.20;0.70;;;;;;;26.40;39.09;101289.34;5013257;28;20526;-71
2022/07/29 10:32:38;;;;;;;2.63;1.40;;;;;;;26.49;39.79;101293.78;5013241;28;21012;-71
2022/07/29 10:35:16;;;;;;;3.23;1.10;;;;;;;26.44;39.09;101288.59;5013076;28;20428;-72
2022/07/29 10:38:04;;;;;;;3.23;1.10;;;;;;;26.45;38.83;101285.41;5013416;28;20482;-71
2022/07/29 10:43:30;;;;;;;2.60;1.10;;;;;;;26.54;39.94;101283.06;5013079;28;20793;-71
2022/07/29 10:45:58;;;;;;;2.73;1.30;;;;;;;26.61;39.14;101290.63;5013283;28;20468;-71
2022/07/29 10:48:25;;;;;;;5.70;1.40;;;;;;;26.69;39.96;101283.88;5013322;28;20446;-72
2022/07/29 10:50:58;;;;;;;2.13;0.70;;;;;;;26.62;36.88;101287.44;5013304;28;20480;-71
2022/07/29 10:53:25;;;;;;;2.57;0.80;;;;;;;26.70;37.17;101285.47;5013053;28;20495;-73
2022/07/29 10:55:53;;;;;;;2.90;0.97;;;;;;;26.88;38.72;101289.09;5013025;28;20494;-70
2022/07/29 10:58:22;;;;;;;3.70;1.03;;;;;;;26.97;37.80;101277.56;5013034;28;20471;-71
2022/07/29 11:00:50;;;;;;;2.30;0.70;;;;;;;27.12;38.23;101284.75;5013014;28;20443;-71
2022/07/29 11:03:45;;;;;;;2.13;0.70;;;;;;;27.28;37.39;101287.13;5012970;28;20871;-71
2022/07/29 11:06:12;;;;;;;2.50;1.00;;;;;;;27.43;38.38;101285.13;5012841;28;20464;-71
2022/07/29 11:08:39;;;;;;;2.93;1.10;;;;;;;27.69;37.95;101277.53;5012938;28;20972;-71
2022/07/29 11:11:40;;;;;;;2.10;0.77;;;;;;;28.01;36.55;101267.09;5012764;28;20863;-71
2022/07/29 11:14:08;;;;;;;3.70;0.83;;;;;;;28.24;37.68;101276.94;5013312;28;20432;-71
2022/07/29 11:16:59;;;;;;;2.20;0.80;;;;;;;28.14;36.54;101270.22;5013082;28;20483;-71
2022/07/29 11:19:26;;;;;;;3.00;1.40;;;;;;;27.81;36.02;101272.34;5012863;28;20443;-71
2022/07/29 11:21:53;;;;;;;2.23;0.90;;;;;;;27.79;37.89;101271.16;5013078;28;20443;-70
2022/07/29 11:24:23;;;;;;;3.00;1.27;;;;;;;27.85;37.73;101280.69;5012993;28;21021;-71
2022/07/29 11:27:14;;;;;;;2.53;0.90;;;;;;;28.02;37.85;101279.03;5013210;28;20507;-70
2022/07/29 11:29:50;;;;;;;2.57;0.93;;;;;;;28.47;37.13;101265.31;5013099;28;20431;-69
2022/07/29 11:32:19;;;;;;;2.73;1.03;;;;;;;29.16;36.01;101270.00;5012866;28;20478;-71
2022/07/29 11:34:47;;;;;;;3.60;0.80;;;;;;;29.99;35.08;101267.16;5012578;28;20444;-71
2022/07/29 11:37:25;;;;;;;4.00;0.83;;;;;;;30.42;34.64;101275.00;5012492;28;20550;-71
2022/07/29 11:40:13;;;;;;;2.70;1.20;;;;;;;30.69;33.02;101270.19;5012814;28;20432;-71